Hopewell, Virginia
Current Conditions -  °F | °C
As of 9:54 PM on Monday 20 Oct 2014 (Local Time) from KRIC Reporting Station
Broken Clouds Broken Clouds  
Wind Chill: 55°   Ceiling: 30000
Heat Index: 55°   Visibility: 10mi
Dew Point: 44°   Wind: 5mph
Humidity: 67%   Direction: 180°S
Pressure: 29.97"   Gusts: NA
Location:  37.3°N, 77.29°W
Report Text: KRIC 210154Z 18004KT 10SM BKN300 13/07 A2997 RMK AO2 SLP155 T01280067
Loading
Personal Weather Stations






























Interactive Weather Map
Tropical Storm Tracking
New forecast layout! Learn more

10-Day Weather Forecast

Advertisements
Track Severe Weather on mobile